sensor_id;sensor_type;location;lat;lon;timestamp;temperature;humidity
68584;DHT22;55557;49.220;11.150;2022-07-29T16:52:30;20.20;99.90
68584;DHT22;55557;49.220;11.150;2022-07-29T16:54:56;20.40;99.90
68584;DHT22;55557;49.220;11.150;2022-07-29T16:57:21;20.30;99.90
68584;DHT22;55557;49.220;11.150;2022-07-29T16:59:47;20.50;99.90
68584;DHT22;55557;49.220;11.150;2022-07-29T17:02:15;19.30;99.90
68584;DHT22;55557;49.220;11.150;2022-07-29T17:04:41;20.10;99.90
68584;DHT22;55557;49.220;11.150;2022-07-29T17:07:06;20.10;99.90
68584;DHT22;55557;49.220;11.150;2022-07-29T17:09:32;20.00;99.90
68584;DHT22;55557;49.220;11.150;2022-07-29T17:11:58;20.70;99.90
68584;DHT22;55557;49.220;11.150;2022-07-29T17:14:26;21.20;99.90
68584;DHT22;55557;49.220;11.150;2022-07-29T17:16:53;20.50;99.90
68584;DHT22;55557;49.220;11.150;2022-07-29T17:19:20;20.80;99.90
68584;DHT22;55557;49.220;11.150;2022-07-29T17:21:45;20.90;99.90
68584;DHT22;55557;49.220;11.150;2022-07-29T17:24:11;20.80;99.90
68584;DHT22;55557;49.220;11.150;2022-07-29T17:26:36;20.50;99.90
68584;DHT22;55557;49.220;11.150;2022-07-29T17:29:04;20.60;99.90
68584;DHT22;55557;49.220;11.150;2022-07-29T17:31:30;20.50;99.90
68584;DHT22;55557;49.220;11.150;2022-07-29T17:33:56;21.50;99.90
68584;DHT22;55557;49.220;11.150;2022-07-29T17:36:21;20.60;99.90
68584;DHT22;55557;49.220;11.150;2022-07-29T17:39:11;20.70;99.90
68584;DHT22;55557;49.220;11.150;2022-07-29T17:41:37;20.80;99.90
68584;DHT22;55557;49.220;11.150;2022-07-29T17:44:05;20.50;99.90
68584;DHT22;55557;49.220;11.150;2022-07-29T17:46:30;20.30;99.90
68584;DHT22;55557;49.220;11.150;2022-07-29T17:48:56;20.20;99.90
68584;DHT22;55557;49.220;11.150;2022-07-29T17:51:23;20.30;99.90
68584;DHT22;55557;49.220;11.150;2022-07-29T17:53:49;19.80;99.90
68584;DHT22;55557;49.220;11.150;2022-07-29T17:56:15;20.60;99.90
68584;DHT22;55557;49.220;11.150;2022-07-29T17:58:40;20.00;99.90
68584;DHT22;55557;49.220;11.150;2022-07-29T18:01:06;20.10;99.90
68584;DHT22;55557;49.220;11.150;2022-07-29T18:03:32;20.20;99.90
68584;DHT22;55557;49.220;11.150;2022-07-29T18:05:57;20.00;99.90
68584;DHT22;55557;49.220;11.150;2022-07-29T18:08:23;19.70;99.90
68584;DHT22;55557;49.220;11.150;2022-07-29T18:10:49;19.50;99.90
68584;DHT22;55557;49.220;11.150;2022-07-29T18:13:15;19.70;99.90
68584;DHT22;55557;49.220;11.150;2022-07-29T18:15:43;19.90;99.90
68584;DHT22;55557;49.220;11.150;2022-07-29T18:18:13;18.80;99.90
68584;DHT22;55557;49.220;11.150;2022-07-29T18:20:39;19.30;99.90
68584;DHT22;55557;49.220;11.150;2022-07-29T18:23:05;19.20;99.90
68584;DHT22;55557;49.220;11.150;2022-07-29T18:25:30;20.40;99.90
68584;DHT22;55557;49.220;11.150;2022-07-29T18:27:56;19.40;99.90
68584;DHT22;55557;49.220;11.150;2022-07-29T18:30:22;19.10;99.90
68584;DHT22;55557;49.220;11.150;2022-07-29T18:32:47;19.10;99.90
68584;DHT22;55557;49.220;11.150;2022-07-29T18:35:16;19.20;99.90
68584;DHT22;55557;49.220;11.150;2022-07-29T18:37:43;19.10;99.90
68584;DHT22;55557;49.220;11.150;2022-07-29T18:40:09;19.00;99.90
68584;DHT22;55557;49.220;11.150;2022-07-29T18:42:36;18.90;99.90
68584;DHT22;55557;49.220;11.150;2022-07-29T18:45:08;19.90;99.90
68584;DHT22;55557;49.220;11.150;2022-07-29T18:47:34;19.10;99.90
68584;DHT22;55557;49.220;11.150;2022-07-29T18:50:02;19.10;99.90
68584;DHT22;55557;49.220;11.150;2022-07-29T18:52:28;19.00;99.90
68584;DHT22;55557;49.220;11.150;2022-07-29T18:54:54;19.60;99.90
68584;DHT22;55557;49.220;11.150;2022-07-29T18:57:19;20.10;99.90
68584;DHT22;55557;49.220;11.150;2022-07-29T18:59:45;19.10;99.90
68584;DHT22;55557;49.220;11.150;2022-07-29T19:02:10;19.10;99.90
68584;DHT22;55557;49.220;11.150;2022-07-29T19:04:36;19.30;99.90
68584;DHT22;55557;49.220;11.150;2022-07-29T19:07:01;19.10;99.90
68584;DHT22;55557;49.220;11.150;2022-07-29T19:09:28;18.80;99.90
68584;DHT22;55557;49.220;11.150;2022-07-29T19:11:54;19.30;99.90
68584;DHT22;55557;49.220;11.150;2022-07-29T19:14:20;19.10;99.90
68584;DHT22;55557;49.220;11.150;2022-07-29T19:16:45;18.40;99.90
68584;DHT22;55557;49.220;11.150;2022-07-29T19:19:11;18.50;99.90
68584;DHT22;55557;49.220;11.150;2022-07-29T19:21:38;18.90;99.90
68584;DHT22;55557;49.220;11.150;2022-07-29T19:24:05;17.80;99.90
68584;DHT22;55557;49.220;11.150;2022-07-29T19:26:31;18.40;99.90
68584;DHT22;55557;49.220;11.150;2022-07-29T19:28:57;18.70;99.90
68584;DHT22;55557;49.220;11.150;2022-07-29T19:31:23;18.90;99.90
68584;DHT22;55557;49.220;11.150;2022-07-29T19:33:48;18.90;99.90
68584;DHT22;55557;49.220;11.150;2022-07-29T19:36:15;19.10;99.90
68584;DHT22;55557;49.220;11.150;2022-07-29T19:38:40;19.80;99.90
68584;DHT22;55557;49.220;11.150;2022-07-29T19:41:06;18.90;99.90
68584;DHT22;55557;49.220;11.150;2022-07-29T19:43:32;19.00;99.90
68584;DHT22;55557;49.220;11.150;2022-07-29T19:45:59;19.00;99.90
68584;DHT22;55557;49.220;11.150;2022-07-29T19:48:24;19.60;99.90
68584;DHT22;55557;49.220;11.150;2022-07-29T19:50:50;18.70;99.90
68584;DHT22;55557;49.220;11.150;2022-07-29T19:53:16;18.80;99.90
68584;DHT22;55557;49.220;11.150;2022-07-29T19:55:41;19.50;99.90
68584;DHT22;55557;49.220;11.150;2022-07-29T19:58:07;19.20;99.90
68584;DHT22;55557;49.220;11.150;2022-07-29T20:00:33;20.20;99.90
68584;DHT22;55557;49.220;11.150;2022-07-29T20:02:59;18.80;99.90
68584;DHT22;55557;49.220;11.150;2022-07-29T20:05:24;18.40;99.90
68584;DHT22;55557;49.220;11.150;2022-07-29T20:07:53;18.90;99.90
68584;DHT22;55557;49.220;11.150;2022-07-29T20:10:19;18.60;99.90
68584;DHT22;55557;49.220;11.150;2022-07-29T20:12:45;18.60;99.90
68584;DHT22;55557;49.220;11.150;2022-07-29T20:15:11;18.70;99.90
68584;DHT22;55557;49.220;11.150;2022-07-29T20:17:38;18.60;99.90
68584;DHT22;55557;49.220;11.150;2022-07-29T20:20:05;18.40;99.90
68584;DHT22;55557;49.220;11.150;2022-07-29T20:22:30;18.90;99.90
68584;DHT22;55557;49.220;11.150;2022-07-29T20:24:56;18.60;99.90
68584;DHT22;55557;49.220;11.150;2022-07-29T20:27:22;18.60;99.90
68584;DHT22;55557;49.220;11.150;2022-07-29T20:29:48;18.80;99.90
68584;DHT22;55557;49.220;11.150;2022-07-29T20:32:13;18.80;99.90
68584;DHT22;55557;49.220;11.150;2022-07-29T20:34:39;18.90;99.90
68584;DHT22;55557;49.220;11.150;2022-07-29T20:37:06;18.70;99.90
68584;DHT22;55557;49.220;11.150;2022-07-29T20:39:35;18.50;99.90
68584;DHT22;55557;49.220;11.150;2022-07-29T20:42:00;18.00;99.90
68584;DHT22;55557;49.220;11.150;2022-07-29T20:44:26;18.00;99.90
68584;DHT22;55557;49.220;11.150;2022-07-29T20:46:51;18.30;99.90
68584;DHT22;55557;49.220;11.150;2022-07-29T20:49:17;18.10;99.90
68584;DHT22;55557;49.220;11.150;2022-07-29T20:51:43;18.30;99.90
68584;DHT22;55557;49.220;11.150;2022-07-29T20:54:08;18.40;99.90
68584;DHT22;55557;49.220;11.150;2022-07-29T20:56:34;18.40;99.90
68584;DHT22;55557;49.220;11.150;2022-07-29T20:58:59;18.60;99.90
68584;DHT22;55557;49.220;11.150;2022-07-29T21:01:25;18.60;99.90
68584;DHT22;55557;49.220;11.150;2022-07-29T21:03:51;18.50;99.90
68584;DHT22;55557;49.220;11.150;2022-07-29T21:06:16;18.60;99.90
68584;DHT22;55557;49.220;11.150;2022-07-29T21:08:42;18.60;99.90
68584;DHT22;55557;49.220;11.150;2022-07-29T21:11:07;18.60;99.90
68584;DHT22;55557;49.220;11.150;2022-07-29T21:13:33;18.60;99.90
68584;DHT22;55557;49.220;11.150;2022-07-29T21:16:07;18.50;99.90
68584;DHT22;55557;49.220;11.150;2022-07-29T21:18:43;18.50;99.90
68584;DHT22;55557;49.220;11.150;2022-07-29T21:21:14;18.50;99.90
68584;DHT22;55557;49.220;11.150;2022-07-29T21:23:41;18.60;99.90
68584;DHT22;55557;49.220;11.150;2022-07-29T21:26:07;18.50;99.90
68584;DHT22;55557;49.220;11.150;2022-07-29T21:28:32;18.30;99.90
68584;DHT22;55557;49.220;11.150;2022-07-29T21:31:05;18.50;99.90
68584;DHT22;55557;49.220;11.150;2022-07-29T21:33:31;18.40;99.90
68584;DHT22;55557;49.220;11.150;2022-07-29T21:35:58;18.40;99.90
68584;DHT22;55557;49.220;11.150;2022-07-29T21:38:24;18.40;99.90
68584;DHT22;55557;49.220;11.150;2022-07-29T21:40:51;18.30;99.90
68584;DHT22;55557;49.220;11.150;2022-07-29T21:43:17;18.60;99.90
68584;DHT22;55557;49.220;11.150;2022-07-29T21:45:43;18.40;99.90
68584;DHT22;55557;49.220;11.150;2022-07-29T21:48:12;18.30;99.90
68584;DHT22;55557;49.220;11.150;2022-07-29T21:50:38;18.20;99.90
68584;DHT22;55557;49.220;11.150;2022-07-29T21:53:03;18.40;99.90
68584;DHT22;55557;49.220;11.150;2022-07-29T21:55:29;18.30;99.90
68584;DHT22;55557;49.220;11.150;2022-07-29T21:57:55;18.40;99.90
68584;DHT22;55557;49.220;11.150;2022-07-29T22:00:22;18.30;99.90
68584;DHT22;55557;49.220;11.150;2022-07-29T22:02:53;18.40;99.90
68584;DHT22;55557;49.220;11.150;2022-07-29T22:05:19;18.70;99.90
68584;DHT22;55557;49.220;11.150;2022-07-29T22:07:45;18.30;99.90
68584;DHT22;55557;49.220;11.150;2022-07-29T22:10:10;18.40;99.90
68584;DHT22;55557;49.220;11.150;2022-07-29T22:12:36;18.30;99.90
68584;DHT22;55557;49.220;11.150;2022-07-29T22:15:02;18.30;99.90
68584;DHT22;55557;49.220;11.150;2022-07-29T22:17:28;18.40;99.90
68584;DHT22;55557;49.220;11.150;2022-07-29T22:19:54;18.30;99.90
68584;DHT22;55557;49.220;11.150;2022-07-29T22:22:20;18.50;99.90
68584;DHT22;55557;49.220;11.150;2022-07-29T22:24:45;18.30;99.90
68584;DHT22;55557;49.220;11.150;2022-07-29T22:27:12;18.20;99.90
68584;DHT22;55557;49.220;11.150;2022-07-29T22:29:37;18.80;99.90
68584;DHT22;55557;49.220;11.150;2022-07-29T22:32:03;18.30;99.90
68584;DHT22;55557;49.220;11.150;2022-07-29T22:34:29;18.20;99.90
68584;DHT22;55557;49.220;11.150;2022-07-29T22:37:02;18.10;99.90
68584;DHT22;55557;49.220;11.150;2022-07-29T22:39:28;18.10;99.90
68584;DHT22;55557;49.220;11.150;2022-07-29T22:41:53;18.10;99.90
68584;DHT22;55557;49.220;11.150;2022-07-29T22:44:19;18.70;99.90
68584;DHT22;55557;49.220;11.150;2022-07-29T22:46:45;18.00;99.90
68584;DHT22;55557;49.220;11.150;2022-07-29T22:49:10;18.10;99.90
68584;DHT22;55557;49.220;11.150;2022-07-29T22:51:36;18.20;99.90
68584;DHT22;55557;49.220;11.150;2022-07-29T22:54:02;18.10;99.90
68584;DHT22;55557;49.220;11.150;2022-07-29T22:56:28;18.00;99.90
68584;DHT22;55557;49.220;11.150;2022-07-29T22:58:53;18.40;99.90
68584;DHT22;55557;49.220;11.150;2022-07-29T23:01:21;17.80;99.90
68584;DHT22;55557;49.220;11.150;2022-07-29T23:03:47;17.80;99.90
68584;DHT22;55557;49.220;11.150;2022-07-29T23:06:13;17.80;99.90
68584;DHT22;55557;49.220;11.150;2022-07-29T23:08:39;18.30;99.90
68584;DHT22;55557;49.220;11.150;2022-07-29T23:11:04;18.00;99.90
68584;DHT22;55557;49.220;11.150;2022-07-29T23:13:30;18.00;99.90
68584;DHT22;55557;49.220;11.150;2022-07-29T23:15:55;18.30;99.90
68584;DHT22;55557;49.220;11.150;2022-07-29T23:18:21;17.60;99.90
68584;DHT22;55557;49.220;11.150;2022-07-29T23:20:47;17.70;99.90
68584;DHT22;55557;49.220;11.150;2022-07-29T23:23:12;17.80;99.90
68584;DHT22;55557;49.220;11.150;2022-07-29T23:25:38;17.90;99.90
68584;DHT22;55557;49.220;11.150;2022-07-29T23:28:04;17.70;99.90
68584;DHT22;55557;49.220;11.150;2022-07-29T23:30:29;17.70;99.90
68584;DHT22;55557;49.220;11.150;2022-07-29T23:32:55;17.70;99.90
68584;DHT22;55557;49.220;11.150;2022-07-29T23:35:21;17.70;99.90
68584;DHT22;55557;49.220;11.150;2022-07-29T23:37:47;17.40;99.90
68584;DHT22;55557;49.220;11.150;2022-07-29T23:40:13;17.60;99.90
68584;DHT22;55557;49.220;11.150;2022-07-29T23:42:39;17.60;99.90
68584;DHT22;55557;49.220;11.150;2022-07-29T23:45:05;17.40;99.90
68584;DHT22;55557;49.220;11.150;2022-07-29T23:47:31;17.40;99.90
68584;DHT22;55557;49.220;11.150;2022-07-29T23:49:56;17.40;99.90
68584;DHT22;55557;49.220;11.150;2022-07-29T23:52:22;17.20;99.90
68584;DHT22;55557;49.220;11.150;2022-07-29T23:54:47;17.20;99.90
68584;DHT22;55557;49.220;11.150;2022-07-29T23:57:13;17.20;99.90
68584;DHT22;55557;49.220;11.150;2022-07-29T23:59:39;17.20;99.90
